createdAt,value
2023-04-23T00:01:41.613Z,12.27
2023-04-23T00:11:43.945Z,12.63
2023-04-23T00:21:46.667Z,12.40
2023-04-23T00:31:48.608Z,11.90
2023-04-23T00:41:50.593Z,12.63
2023-04-23T00:51:52.266Z,11.85
2023-04-23T01:01:55.849Z,12.75
2023-04-23T01:22:02.507Z,13.35
2023-04-23T01:32:05.249Z,14.15
2023-04-23T01:42:09.564Z,15.13
2023-04-23T01:52:12.553Z,14.15
2023-04-23T02:02:15.326Z,14.13
2023-04-23T02:12:17.108Z,14.53
2023-04-23T02:22:19.349Z,13.88
2023-04-23T02:32:21.330Z,13.57
2023-04-23T02:42:23.028Z,15.27
2023-04-23T02:52:25.514Z,13.68
2023-04-23T03:02:28.842Z,14.68
2023-04-23T03:12:30.596Z,14.43
2023-04-23T03:22:32.302Z,14.57
2023-04-23T03:32:36.148Z,13.82
2023-04-23T03:42:38.009Z,16.88
2023-04-23T03:52:39.717Z,15.52
2023-04-23T04:02:41.712Z,15.50
2023-04-23T04:12:47.876Z,15.20
2023-04-23T04:22:49.741Z,15.80
2023-04-23T04:32:58.271Z,16.77
2023-04-23T04:43:00.860Z,16.63
2023-04-23T04:53:02.449Z,16.02
2023-04-23T05:03:07.878Z,16.17
2023-04-23T05:13:10.289Z,14.55
2023-04-23T05:23:12.397Z,15.73
2023-04-23T05:33:14.382Z,14.05
2023-04-23T05:43:17.329Z,11.25
2023-04-23T05:53:19.081Z,10.23
2023-04-23T06:03:21.214Z,10.40
2023-04-23T06:13:23.159Z,10.35
2023-04-23T06:23:26.789Z,10.65
2023-04-23T06:33:28.569Z,11.25
2023-04-23T06:43:31.378Z,10.85
2023-04-23T06:53:36.606Z,10.45
2023-04-23T07:03:39.517Z,8.93
2023-04-23T07:13:44.703Z,8.52
2023-04-23T07:23:49.767Z,6.88
2023-04-23T07:33:52.704Z,6.45
2023-04-23T07:43:54.589Z,6.88
2023-04-23T07:53:57.119Z,5.47
2023-04-23T08:04:03.595Z,4.47
2023-04-23T08:14:08.811Z,5.18
2023-04-23T08:24:10.729Z,4.75
2023-04-23T08:44:25.811Z,3.60
2023-04-23T08:54:29.059Z,3.72
2023-04-23T09:04:31.773Z,4.07
2023-04-23T09:14:37.751Z,3.92
2023-04-23T09:24:45.423Z,4.05
2023-04-23T09:34:57.041Z,4.60
2023-04-23T09:45:09.263Z,4.03
2023-04-23T09:55:11.096Z,3.78
2023-04-23T10:05:27.283Z,3.25
2023-04-23T10:25:39.237Z,3.03
2023-04-23T10:35:42.461Z,2.80
2023-04-23T10:45:44.244Z,3.17
2023-04-23T10:55:47.351Z,3.15
2023-04-23T11:05:51.652Z,3.35
2023-04-23T11:16:26.829Z,3.55
2023-04-23T11:26:31.472Z,3.20
2023-04-23T11:36:34.831Z,3.30
2023-04-23T11:46:36.820Z,3.25
2023-04-23T11:56:38.602Z,3.03
2023-04-23T12:06:58.301Z,4.95
2023-04-23T12:17:09.977Z,3.40
2023-04-23T12:27:16.065Z,3.08
2023-04-23T12:37:20.394Z,3.25
2023-04-23T12:47:22.194Z,2.67
2023-04-23T12:57:25.337Z,2.58
2023-04-23T13:07:28.482Z,3.50
2023-04-23T13:17:32.493Z,2.97
2023-04-23T13:27:34.323Z,2.90
2023-04-23T13:37:36.809Z,2.55
2023-04-23T13:47:42.168Z,2.80
2023-04-23T13:57:48.849Z,2.30
2023-04-23T14:07:55.443Z,2.70
2023-04-23T14:17:57.253Z,2.60
2023-04-23T14:28:03.685Z,3.00
2023-04-23T14:38:06.384Z,3.45
2023-04-23T14:48:10.658Z,2.80
2023-04-23T14:58:16.810Z,2.60
2023-04-23T15:08:18.575Z,2.80
2023-04-23T15:18:20.490Z,2.60
2023-04-23T15:28:23.606Z,3.10
2023-04-23T15:38:25.470Z,2.85
2023-04-23T15:48:35.488Z,2.88
2023-04-23T15:58:37.274Z,3.22
2023-04-23T16:08:40.028Z,2.70
2023-04-23T16:18:42.998Z,3.67
2023-04-23T16:28:52.000Z,3.22
2023-04-23T16:39:06.053Z,4.32
2023-04-23T16:49:08.402Z,3.63
2023-04-23T16:59:10.746Z,3.70
2023-04-23T17:09:13.859Z,3.45
2023-04-23T17:19:20.226Z,3.50
2023-04-23T17:29:22.832Z,3.55
2023-04-23T17:39:25.725Z,3.47
2023-04-23T17:49:28.872Z,4.00
2023-04-23T17:59:32.105Z,4.10
2023-04-23T18:09:40.643Z,3.47
2023-04-23T18:19:52.330Z,3.95
2023-04-23T18:29:54.609Z,5.33
2023-04-23T18:50:49.500Z,4.57
2023-04-23T19:00:54.033Z,4.72
2023-04-23T19:11:06.578Z,5.13
2023-04-23T19:21:10.794Z,4.00
2023-04-23T19:31:18.440Z,5.25
2023-04-23T19:41:24.377Z,4.75
2023-04-23T19:51:36.037Z,4.82
2023-04-23T20:01:39.950Z,4.63
2023-04-23T20:11:43.418Z,4.70
2023-04-23T20:21:46.405Z,4.70
2023-04-23T20:31:49.932Z,4.95
2023-04-23T20:41:55.277Z,4.65
2023-04-23T20:51:57.377Z,5.25
2023-04-23T21:02:02.225Z,4.83
2023-04-23T21:12:05.470Z,5.78
2023-04-23T21:22:10.904Z,5.32
2023-04-23T21:32:12.763Z,5.75
2023-04-23T21:42:14.575Z,5.80
2023-04-23T21:52:17.493Z,5.97
2023-04-23T22:12:21.490Z,4.93
2023-04-23T22:22:23.530Z,4.53
2023-04-23T22:32:25.465Z,4.77
2023-04-23T22:42:27.183Z,5.13
2023-04-23T22:52:28.894Z,5.25
2023-04-23T23:02:30.875Z,5.78
2023-04-23T23:12:37.470Z,5.53
2023-04-23T23:22:39.310Z,5.10
2023-04-23T23:32:42.426Z,5.50
2023-04-23T23:42:45.159Z,6.78
2023-04-23T23:52:47.457Z,5.70
